sensor_id;sensor_type;location;lat;lon;timestamp;pressure;altitude;pressure_sealevel;temperature
20733;BMP180;10527;52.124;5.196;2023-06-19T00:01:10;100665.00;;;33.80
20733;BMP180;10527;52.124;5.196;2023-06-19T00:03:37;100661.00;;;33.80
20733;BMP180;10527;52.124;5.196;2023-06-19T00:06:05;100672.00;;;33.80
20733;BMP180;10527;52.124;5.196;2023-06-19T00:08:32;100671.00;;;33.80
20733;BMP180;10527;52.124;5.196;2023-06-19T00:10:59;100670.00;;;33.80
20733;BMP180;10527;52.124;5.196;2023-06-19T00:13:26;100680.00;;;33.80
20733;BMP180;10527;52.124;5.196;2023-06-19T00:15:53;100680.00;;;33.80
20733;BMP180;10527;52.124;5.196;2023-06-19T00:18:20;100679.00;;;33.70
20733;BMP180;10527;52.124;5.196;2023-06-19T00:20:47;100683.00;;;33.70
20733;BMP180;10527;52.124;5.196;2023-06-19T00:23:14;100680.00;;;33.70
20733;BMP180;10527;52.124;5.196;2023-06-19T00:25:44;100679.00;;;33.70
20733;BMP180;10527;52.124;5.196;2023-06-19T00:28:11;100677.00;;;33.70
20733;BMP180;10527;52.124;5.196;2023-06-19T00:30:42;100673.00;;;33.70
20733;BMP180;10527;52.124;5.196;2023-06-19T00:33:09;100675.00;;;33.60
20733;BMP180;10527;52.124;5.196;2023-06-19T00:35:36;100682.00;;;33.60
20733;BMP180;10527;52.124;5.196;2023-06-19T00:38:04;100687.00;;;33.60
20733;BMP180;10527;52.124;5.196;2023-06-19T00:40:33;100687.00;;;33.60
20733;BMP180;10527;52.124;5.196;2023-06-19T00:43:01;100685.00;;;33.50
20733;BMP180;10527;52.124;5.196;2023-06-19T00:45:29;100692.00;;;33.50
20733;BMP180;10527;52.124;5.196;2023-06-19T00:47:58;100694.00;;;33.50
20733;BMP180;10527;52.124;5.196;2023-06-19T00:50:28;100689.00;;;33.40
20733;BMP180;10527;52.124;5.196;2023-06-19T00:52:58;100688.00;;;33.40
20733;BMP180;10527;52.124;5.196;2023-06-19T00:55:28;100702.00;;;33.40
20733;BMP180;10527;52.124;5.196;2023-06-19T00:57:56;100689.00;;;33.30
20733;BMP180;10527;52.124;5.196;2023-06-19T01:00:23;100703.00;;;33.30
20733;BMP180;10527;52.124;5.196;2023-06-19T01:02:50;100696.00;;;33.30
20733;BMP180;10527;52.124;5.196;2023-06-19T01:05:18;100701.00;;;33.20
20733;BMP180;10527;52.124;5.196;2023-06-19T01:08:10;100729.00;;;33.10
20733;BMP180;10527;52.124;5.196;2023-06-19T01:10:49;100704.00;;;33.00
20733;BMP180;10527;52.124;5.196;2023-06-19T01:13:56;100729.00;;;33.00
20733;BMP180;10527;52.124;5.196;2023-06-19T01:16:28;100720.00;;;32.90
20733;BMP180;10527;52.124;5.196;2023-06-19T01:18:56;100729.00;;;32.90
20733;BMP180;10527;52.124;5.196;2023-06-19T01:21:24;100730.00;;;32.80
20733;BMP180;10527;52.124;5.196;2023-06-19T01:23:51;100735.00;;;32.70
20733;BMP180;10527;52.124;5.196;2023-06-19T01:26:21;100739.00;;;32.70
20733;BMP180;10527;52.124;5.196;2023-06-19T01:28:53;100733.00;;;32.60
20733;BMP180;10527;52.124;5.196;2023-06-19T01:31:32;100744.00;;;32.50
20733;BMP180;10527;52.124;5.196;2023-06-19T01:34:04;100741.00;;;32.50
20733;BMP180;10527;52.124;5.196;2023-06-19T01:36:33;100741.00;;;32.40
20733;BMP180;10527;52.124;5.196;2023-06-19T01:39:02;100744.00;;;32.30
20733;BMP180;10527;52.124;5.196;2023-06-19T01:41:30;100740.00;;;32.30
20733;BMP180;10527;52.124;5.196;2023-06-19T01:43:59;100743.00;;;32.30
20733;BMP180;10527;52.124;5.196;2023-06-19T01:46:26;100743.00;;;32.30
20733;BMP180;10527;52.124;5.196;2023-06-19T01:48:54;100735.00;;;32.30
20733;BMP180;10527;52.124;5.196;2023-06-19T01:51:21;100739.00;;;32.30
20733;BMP180;10527;52.124;5.196;2023-06-19T01:53:48;100735.00;;;32.30
20733;BMP180;10527;52.124;5.196;2023-06-19T01:56:14;100743.00;;;32.30
20733;BMP180;10527;52.124;5.196;2023-06-19T01:58:42;100743.00;;;32.30
20733;BMP180;10527;52.124;5.196;2023-06-19T02:01:08;100740.00;;;32.30
20733;BMP180;10527;52.124;5.196;2023-06-19T02:03:35;100750.00;;;32.30
20733;BMP180;10527;52.124;5.196;2023-06-19T02:06:02;100740.00;;;32.20
20733;BMP180;10527;52.124;5.196;2023-06-19T02:08:29;100742.00;;;32.20
20733;BMP180;10527;52.124;5.196;2023-06-19T02:10:56;100738.00;;;32.20
20733;BMP180;10527;52.124;5.196;2023-06-19T02:13:23;100748.00;;;32.20
20733;BMP180;10527;52.124;5.196;2023-06-19T02:15:52;100746.00;;;32.20
20733;BMP180;10527;52.124;5.196;2023-06-19T02:18:19;100747.00;;;32.20
20733;BMP180;10527;52.124;5.196;2023-06-19T02:20:48;100739.00;;;32.10
20733;BMP180;10527;52.124;5.196;2023-06-19T02:23:15;100739.00;;;32.10
20733;BMP180;10527;52.124;5.196;2023-06-19T02:25:42;100747.00;;;32.10
20733;BMP180;10527;52.124;5.196;2023-06-19T02:28:08;100754.00;;;32.10
20733;BMP180;10527;52.124;5.196;2023-06-19T02:30:35;100745.00;;;32.10
20733;BMP180;10527;52.124;5.196;2023-06-19T02:33:02;100745.00;;;32.10
20733;BMP180;10527;52.124;5.196;2023-06-19T02:35:29;100745.00;;;32.10
20733;BMP180;10527;52.124;5.196;2023-06-19T02:37:56;100750.00;;;32.10
20733;BMP180;10527;52.124;5.196;2023-06-19T02:40:24;100751.00;;;32.10
20733;BMP180;10527;52.124;5.196;2023-06-19T02:42:51;100754.00;;;32.10
20733;BMP180;10527;52.124;5.196;2023-06-19T02:45:18;100761.00;;;32.00
20733;BMP180;10527;52.124;5.196;2023-06-19T02:47:45;100764.00;;;32.00
20733;BMP180;10527;52.124;5.196;2023-06-19T02:50:12;100764.00;;;32.00
20733;BMP180;10527;52.124;5.196;2023-06-19T02:52:39;100766.00;;;32.00
20733;BMP180;10527;52.124;5.196;2023-06-19T02:55:07;100769.00;;;32.00
20733;BMP180;10527;52.124;5.196;2023-06-19T02:57:35;100777.00;;;32.00
20733;BMP180;10527;52.124;5.196;2023-06-19T03:00:03;100759.00;;;32.00
20733;BMP180;10527;52.124;5.196;2023-06-19T03:02:32;100760.00;;;31.90
20733;BMP180;10527;52.124;5.196;2023-06-19T03:04:59;100770.00;;;32.00
20733;BMP180;10527;52.124;5.196;2023-06-19T03:07:26;100757.00;;;31.90
20733;BMP180;10527;52.124;5.196;2023-06-19T03:09:55;100774.00;;;31.90
20733;BMP180;10527;52.124;5.196;2023-06-19T03:12:22;100768.00;;;31.90
20733;BMP180;10527;52.124;5.196;2023-06-19T03:14:48;100776.00;;;31.90
20733;BMP180;10527;52.124;5.196;2023-06-19T03:17:15;100775.00;;;31.90
20733;BMP180;10527;52.124;5.196;2023-06-19T03:19:42;100770.00;;;31.90
20733;BMP180;10527;52.124;5.196;2023-06-19T03:22:09;100779.00;;;31.90
20733;BMP180;10527;52.124;5.196;2023-06-19T03:24:36;100778.00;;;31.80
20733;BMP180;10527;52.124;5.196;2023-06-19T03:27:03;100788.00;;;31.80
20733;BMP180;10527;52.124;5.196;2023-06-19T03:29:30;100793.00;;;31.80
20733;BMP180;10527;52.124;5.196;2023-06-19T03:31:57;100796.00;;;31.70
20733;BMP180;10527;52.124;5.196;2023-06-19T03:34:24;100791.00;;;31.70
20733;BMP180;10527;52.124;5.196;2023-06-19T03:36:54;100797.00;;;31.60
20733;BMP180;10527;52.124;5.196;2023-06-19T03:39:23;100802.00;;;31.60
20733;BMP180;10527;52.124;5.196;2023-06-19T03:41:50;100798.00;;;31.60
20733;BMP180;10527;52.124;5.196;2023-06-19T03:44:17;100808.00;;;31.50
20733;BMP180;10527;52.124;5.196;2023-06-19T03:46:44;100804.00;;;31.50
20733;BMP180;10527;52.124;5.196;2023-06-19T03:49:11;100806.00;;;31.50
20733;BMP180;10527;52.124;5.196;2023-06-19T03:51:38;100809.00;;;31.40
20733;BMP180;10527;52.124;5.196;2023-06-19T03:54:05;100809.00;;;31.40
20733;BMP180;10527;52.124;5.196;2023-06-19T03:56:32;100823.00;;;31.40
20733;BMP180;10527;52.124;5.196;2023-06-19T03:58:59;100821.00;;;31.30
20733;BMP180;10527;52.124;5.196;2023-06-19T04:01:25;100821.00;;;31.30
20733;BMP180;10527;52.124;5.196;2023-06-19T04:03:52;100821.00;;;31.30
20733;BMP180;10527;52.124;5.196;2023-06-19T04:06:19;100832.00;;;31.30
20733;BMP180;10527;52.124;5.196;2023-06-19T04:08:46;100839.00;;;31.30
20733;BMP180;10527;52.124;5.196;2023-06-19T04:11:13;100826.00;;;31.20
20733;BMP180;10527;52.124;5.196;2023-06-19T04:13:40;100846.00;;;31.20
20733;BMP180;10527;52.124;5.196;2023-06-19T04:16:08;100838.00;;;31.20
20733;BMP180;10527;52.124;5.196;2023-06-19T04:18:35;100857.00;;;31.10
20733;BMP180;10527;52.124;5.196;2023-06-19T04:21:02;100846.00;;;31.10
20733;BMP180;10527;52.124;5.196;2023-06-19T04:23:29;100849.00;;;31.00
20733;BMP180;10527;52.124;5.196;2023-06-19T04:25:56;100849.00;;;31.00
20733;BMP180;10527;52.124;5.196;2023-06-19T04:28:23;100838.00;;;31.00
20733;BMP180;10527;52.124;5.196;2023-06-19T04:30:49;100871.00;;;31.00
20733;BMP180;10527;52.124;5.196;2023-06-19T04:33:16;100859.00;;;30.90
20733;BMP180;10527;52.124;5.196;2023-06-19T04:35:48;100871.00;;;30.90
20733;BMP180;10527;52.124;5.196;2023-06-19T04:38:15;100879.00;;;30.90
20733;BMP180;10527;52.124;5.196;2023-06-19T04:40:42;100885.00;;;30.90
20733;BMP180;10527;52.124;5.196;2023-06-19T04:43:09;100884.00;;;30.90
20733;BMP180;10527;52.124;5.196;2023-06-19T04:45:37;100884.00;;;30.80
20733;BMP180;10527;52.124;5.196;2023-06-19T04:48:04;100896.00;;;30.80
20733;BMP180;10527;52.124;5.196;2023-06-19T04:50:31;100895.00;;;30.80
20733;BMP180;10527;52.124;5.196;2023-06-19T04:52:58;100904.00;;;30.70
20733;BMP180;10527;52.124;5.196;2023-06-19T04:55:24;100917.00;;;30.70
20733;BMP180;10527;52.124;5.196;2023-06-19T04:57:52;100912.00;;;30.70
20733;BMP180;10527;52.124;5.196;2023-06-19T05:00:19;100907.00;;;30.70
20733;BMP180;10527;52.124;5.196;2023-06-19T05:02:50;100903.00;;;30.60
20733;BMP180;10527;52.124;5.196;2023-06-19T05:05:17;100919.00;;;30.60
20733;BMP180;10527;52.124;5.196;2023-06-19T05:07:48;100906.00;;;30.60
20733;BMP180;10527;52.124;5.196;2023-06-19T05:10:14;100916.00;;;30.50
20733;BMP180;10527;52.124;5.196;2023-06-19T05:12:42;100909.00;;;30.50
20733;BMP180;10527;52.124;5.196;2023-06-19T05:15:09;100916.00;;;30.60
20733;BMP180;10527;52.124;5.196;2023-06-19T05:17:36;100915.00;;;30.60
20733;BMP180;10527;52.124;5.196;2023-06-19T05:20:06;100918.00;;;30.60
20733;BMP180;10527;52.124;5.196;2023-06-19T05:22:35;100934.00;;;30.60
20733;BMP180;10527;52.124;5.196;2023-06-19T05:25:03;100941.00;;;30.60
20733;BMP180;10527;52.124;5.196;2023-06-19T05:27:30;100926.00;;;30.60
20733;BMP180;10527;52.124;5.196;2023-06-19T05:29:57;100925.00;;;30.60
20733;BMP180;10527;52.124;5.196;2023-06-19T05:32:24;100931.00;;;30.60
20733;BMP180;10527;52.124;5.196;2023-06-19T05:34:51;100944.00;;;30.60
20733;BMP180;10527;52.124;5.196;2023-06-19T05:37:19;100937.00;;;30.70
20733;BMP180;10527;52.124;5.196;2023-06-19T05:39:46;100939.00;;;30.60
20733;BMP180;10527;52.124;5.196;2023-06-19T05:42:12;100947.00;;;30.60
20733;BMP180;10527;52.124;5.196;2023-06-19T05:44:39;100950.00;;;30.60
20733;BMP180;10527;52.124;5.196;2023-06-19T05:47:06;100940.00;;;30.60
20733;BMP180;10527;52.124;5.196;2023-06-19T05:49:33;100965.00;;;30.60
20733;BMP180;10527;52.124;5.196;2023-06-19T05:52:00;100960.00;;;30.50
20733;BMP180;10527;52.124;5.196;2023-06-19T05:54:27;100969.00;;;30.60
20733;BMP180;10527;52.124;5.196;2023-06-19T05:56:54;100960.00;;;30.60
20733;BMP180;10527;52.124;5.196;2023-06-19T05:59:21;100965.00;;;30.60
20733;BMP180;10527;52.124;5.196;2023-06-19T06:01:48;100967.00;;;30.60
20733;BMP180;10527;52.124;5.196;2023-06-19T06:04:17;100966.00;;;30.60
20733;BMP180;10527;52.124;5.196;2023-06-19T06:06:46;100962.00;;;30.50
20733;BMP180;10527;52.124;5.196;2023-06-19T06:09:13;100958.00;;;30.50
20733;BMP180;10527;52.124;5.196;2023-06-19T06:11:41;100969.00;;;30.50
20733;BMP180;10527;52.124;5.196;2023-06-19T06:14:08;100967.00;;;30.50
20733;BMP180;10527;52.124;5.196;2023-06-19T06:16:39;100974.00;;;30.60
20733;BMP180;10527;52.124;5.196;2023-06-19T06:19:06;100985.00;;;30.60
20733;BMP180;10527;52.124;5.196;2023-06-19T06:21:33;100992.00;;;30.60
20733;BMP180;10527;52.124;5.196;2023-06-19T06:24:01;100994.00;;;30.60
20733;BMP180;10527;52.124;5.196;2023-06-19T06:26:32;100989.00;;;30.60
20733;BMP180;10527;52.124;5.196;2023-06-19T06:29:00;101001.00;;;30.70
20733;BMP180;10527;52.124;5.196;2023-06-19T06:31:27;101009.00;;;30.70
20733;BMP180;10527;52.124;5.196;2023-06-19T06:33:54;101004.00;;;30.70
20733;BMP180;10527;52.124;5.196;2023-06-19T06:36:21;101003.00;;;30.70
20733;BMP180;10527;52.124;5.196;2023-06-19T06:39:02;101010.00;;;30.80
20733;BMP180;10527;52.124;5.196;2023-06-19T06:41:29;101019.00;;;30.80
20733;BMP180;10527;52.124;5.196;2023-06-19T06:43:56;101010.00;;;30.80
20733;BMP180;10527;52.124;5.196;2023-06-19T06:46:23;101016.00;;;30.80
20733;BMP180;10527;52.124;5.196;2023-06-19T06:48:50;101013.00;;;30.80
20733;BMP180;10527;52.124;5.196;2023-06-19T06:51:17;101020.00;;;30.80
20733;BMP180;10527;52.124;5.196;2023-06-19T06:53:44;101029.00;;;30.80
20733;BMP180;10527;52.124;5.196;2023-06-19T06:56:12;101021.00;;;30.80
20733;BMP180;10527;52.124;5.196;2023-06-19T06:58:39;101026.00;;;30.80
20733;BMP180;10527;52.124;5.196;2023-06-19T07:01:06;101042.00;;;30.80
20733;BMP180;10527;52.124;5.196;2023-06-19T07:03:33;101040.00;;;30.80
20733;BMP180;10527;52.124;5.196;2023-06-19T07:06:02;101047.00;;;30.80
20733;BMP180;10527;52.124;5.196;2023-06-19T07:08:29;101048.00;;;30.80
20733;BMP180;10527;52.124;5.196;2023-06-19T07:10:56;101056.00;;;30.80
20733;BMP180;10527;52.124;5.196;2023-06-19T07:13:25;101066.00;;;30.70
20733;BMP180;10527;52.124;5.196;2023-06-19T07:15:52;101065.00;;;30.70
20733;BMP180;10527;52.124;5.196;2023-06-19T07:18:19;101070.00;;;30.70
20733;BMP180;10527;52.124;5.196;2023-06-19T07:20:46;101072.00;;;30.70
20733;BMP180;10527;52.124;5.196;2023-06-19T07:23:14;101067.00;;;30.70
20733;BMP180;10527;52.124;5.196;2023-06-19T07:25:41;101080.00;;;30.70
20733;BMP180;10527;52.124;5.196;2023-06-19T07:28:08;101077.00;;;30.70
20733;BMP180;10527;52.124;5.196;2023-06-19T07:30:34;101077.00;;;30.80
20733;BMP180;10527;52.124;5.196;2023-06-19T07:33:01;101078.00;;;30.80
20733;BMP180;10527;52.124;5.196;2023-06-19T07:35:28;101070.00;;;30.90
20733;BMP180;10527;52.124;5.196;2023-06-19T07:37:55;101075.00;;;30.90
20733;BMP180;10527;52.124;5.196;2023-06-19T07:40:22;101078.00;;;31.00
20733;BMP180;10527;52.124;5.196;2023-06-19T07:42:49;101078.00;;;31.00
20733;BMP180;10527;52.124;5.196;2023-06-19T07:45:16;101082.00;;;31.00
20733;BMP180;10527;52.124;5.196;2023-06-19T07:47:43;101096.00;;;31.10
20733;BMP180;10527;52.124;5.196;2023-06-19T07:50:10;101104.00;;;31.10
20733;BMP180;10527;52.124;5.196;2023-06-19T07:52:37;101100.00;;;31.10
20733;BMP180;10527;52.124;5.196;2023-06-19T07:55:05;101102.00;;;31.10
20733;BMP180;10527;52.124;5.196;2023-06-19T07:57:31;101105.00;;;31.20
20733;BMP180;10527;52.124;5.196;2023-06-19T07:59:58;101105.00;;;31.10
20733;BMP180;10527;52.124;5.196;2023-06-19T08:02:25;101106.00;;;31.20
20733;BMP180;10527;52.124;5.196;2023-06-19T08:04:54;101110.00;;;31.20
20733;BMP180;10527;52.124;5.196;2023-06-19T08:07:20;101111.00;;;31.20
20733;BMP180;10527;52.124;5.196;2023-06-19T08:09:47;101109.00;;;31.20
20733;BMP180;10527;52.124;5.196;2023-06-19T08:12:30;101108.00;;;31.20
20733;BMP180;10527;52.124;5.196;2023-06-19T08:14:57;101113.00;;;31.20
20733;BMP180;10527;52.124;5.196;2023-06-19T08:17:24;101113.00;;;31.30
20733;BMP180;10527;52.124;5.196;2023-06-19T08:19:51;101111.00;;;31.30
20733;BMP180;10527;52.124;5.196;2023-06-19T08:22:17;101111.00;;;31.40
20733;BMP180;10527;52.124;5.196;2023-06-19T08:24:45;101124.00;;;31.40
20733;BMP180;10527;52.124;5.196;2023-06-19T08:27:11;101121.00;;;31.50
20733;BMP180;10527;52.124;5.196;2023-06-19T08:29:38;101119.00;;;31.50
20733;BMP180;10527;52.124;5.196;2023-06-19T08:32:05;101120.00;;;31.60
20733;BMP180;10527;52.124;5.196;2023-06-19T08:34:37;101137.00;;;31.60
20733;BMP180;10527;52.124;5.196;2023-06-19T08:37:06;101138.00;;;31.70
20733;BMP180;10527;52.124;5.196;2023-06-19T08:39:34;101152.00;;;31.70
20733;BMP180;10527;52.124;5.196;2023-06-19T08:42:24;101145.00;;;31.70
20733;BMP180;10527;52.124;5.196;2023-06-19T08:44:51;101164.00;;;31.80
20733;BMP180;10527;52.124;5.196;2023-06-19T08:47:18;101157.00;;;31.80
20733;BMP180;10527;52.124;5.196;2023-06-19T08:49:45;101162.00;;;31.80
20733;BMP180;10527;52.124;5.196;2023-06-19T08:52:13;101167.00;;;31.80
20733;BMP180;10527;52.124;5.196;2023-06-19T08:54:39;101159.00;;;31.80
20733;BMP180;10527;52.124;5.196;2023-06-19T08:57:11;101164.00;;;31.80
20733;BMP180;10527;52.124;5.196;2023-06-19T08:59:49;101164.00;;;31.90
20733;BMP180;10527;52.124;5.196;2023-06-19T09:02:17;101160.00;;;31.90
20733;BMP180;10527;52.124;5.196;2023-06-19T09:04:45;101151.00;;;32.00
20733;BMP180;10527;52.124;5.196;2023-06-19T09:07:13;101158.00;;;32.00
20733;BMP180;10527;52.124;5.196;2023-06-19T09:09:45;101164.00;;;32.00
20733;BMP180;10527;52.124;5.196;2023-06-19T09:12:15;101167.00;;;32.10
20733;BMP180;10527;52.124;5.196;2023-06-19T09:14:45;101167.00;;;32.10
20733;BMP180;10527;52.124;5.196;2023-06-19T09:17:21;101182.00;;;32.20
20733;BMP180;10527;52.124;5.196;2023-06-19T09:19:50;101175.00;;;32.20
20733;BMP180;10527;52.124;5.196;2023-06-19T09:22:21;101174.00;;;32.20
20733;BMP180;10527;52.124;5.196;2023-06-19T09:24:49;101183.00;;;32.20
20733;BMP180;10527;52.124;5.196;2023-06-19T09:27:19;101186.00;;;32.20
20733;BMP180;10527;52.124;5.196;2023-06-19T09:29:49;101189.00;;;32.30
20733;BMP180;10527;52.124;5.196;2023-06-19T09:32:27;101190.00;;;32.30
20733;BMP180;10527;52.124;5.196;2023-06-19T09:34:57;101203.00;;;32.30
20733;BMP180;10527;52.124;5.196;2023-06-19T09:37:47;101204.00;;;32.40
20733;BMP180;10527;52.124;5.196;2023-06-19T09:40:15;101212.00;;;32.40
20733;BMP180;10527;52.124;5.196;2023-06-19T09:42:43;101206.00;;;32.40
20733;BMP180;10527;52.124;5.196;2023-06-19T09:45:12;101208.00;;;32.40
20733;BMP180;10527;52.124;5.196;2023-06-19T09:47:48;101207.00;;;32.40
20733;BMP180;10527;52.124;5.196;2023-06-19T09:50:18;101219.00;;;32.40
20733;BMP180;10527;52.124;5.196;2023-06-19T09:52:45;101223.00;;;32.50
20733;BMP180;10527;52.124;5.196;2023-06-19T09:55:13;101230.00;;;32.50
20733;BMP180;10527;52.124;5.196;2023-06-19T09:57:41;101235.00;;;32.50
20733;BMP180;10527;52.124;5.196;2023-06-19T10:00:13;101229.00;;;32.60
20733;BMP180;10527;52.124;5.196;2023-06-19T10:03:04;101233.00;;;32.60
20733;BMP180;10527;52.124;5.196;2023-06-19T10:05:38;101242.00;;;32.70
20733;BMP180;10527;52.124;5.196;2023-06-19T10:08:06;101250.00;;;32.70
20733;BMP180;10527;52.124;5.196;2023-06-19T10:10:33;101233.00;;;32.80
20733;BMP180;10527;52.124;5.196;2023-06-19T10:13:15;101235.00;;;32.80
20733;BMP180;10527;52.124;5.196;2023-06-19T10:15:44;101234.00;;;32.80
20733;BMP180;10527;52.124;5.196;2023-06-19T10:18:21;101242.00;;;32.90
20733;BMP180;10527;52.124;5.196;2023-06-19T10:20:48;101236.00;;;32.90
20733;BMP180;10527;52.124;5.196;2023-06-19T10:23:23;101228.00;;;33.00
20733;BMP180;10527;52.124;5.196;2023-06-19T10:28:33;101225.00;;;33.10
20733;BMP180;10527;52.124;5.196;2023-06-19T10:31:07;101232.00;;;33.20
20733;BMP180;10527;52.124;5.196;2023-06-19T10:33:37;101235.00;;;33.20
20733;BMP180;10527;52.124;5.196;2023-06-19T10:36:19;101232.00;;;33.30
20733;BMP180;10527;52.124;5.196;2023-06-19T10:38:48;101236.00;;;33.40
20733;BMP180;10527;52.124;5.196;2023-06-19T10:41:20;101235.00;;;33.50
20733;BMP180;10527;52.124;5.196;2023-06-19T10:44:03;101231.00;;;33.60
20733;BMP180;10527;52.124;5.196;2023-06-19T10:46:35;101221.00;;;33.70
20733;BMP180;10527;52.124;5.196;2023-06-19T10:49:07;101225.00;;;33.70
20733;BMP180;10527;52.124;5.196;2023-06-19T10:51:41;101230.00;;;33.80
20733;BMP180;10527;52.124;5.196;2023-06-19T10:54:10;101225.00;;;33.90
20733;BMP180;10527;52.124;5.196;2023-06-19T10:56:37;101220.00;;;34.00
20733;BMP180;10527;52.124;5.196;2023-06-19T10:59:09;101224.00;;;34.00
20733;BMP180;10527;52.124;5.196;2023-06-19T11:01:46;101217.00;;;34.10
20733;BMP180;10527;52.124;5.196;2023-06-19T11:04:15;101214.00;;;34.10
20733;BMP180;10527;52.124;5.196;2023-06-19T11:06:44;101228.00;;;34.10
20733;BMP180;10527;52.124;5.196;2023-06-19T11:09:12;101214.00;;;34.20
20733;BMP180;10527;52.124;5.196;2023-06-19T11:11:44;101222.00;;;34.20
20733;BMP180;10527;52.124;5.196;2023-06-19T11:14:13;101219.00;;;34.30
20733;BMP180;10527;52.124;5.196;2023-06-19T11:16:46;101222.00;;;34.30
20733;BMP180;10527;52.124;5.196;2023-06-19T11:19:20;101215.00;;;34.30
20733;BMP180;10527;52.124;5.196;2023-06-19T11:21:50;101218.00;;;34.40
20733;BMP180;10527;52.124;5.196;2023-06-19T11:24:18;101218.00;;;34.40
20733;BMP180;10527;52.124;5.196;2023-06-19T11:26:48;101220.00;;;34.40
20733;BMP180;10527;52.124;5.196;2023-06-19T11:29:33;101229.00;;;34.40
20733;BMP180;10527;52.124;5.196;2023-06-19T11:32:15;101238.00;;;34.50
20733;BMP180;10527;52.124;5.196;2023-06-19T11:34:44;101220.00;;;34.50
20733;BMP180;10527;52.124;5.196;2023-06-19T11:37:18;101228.00;;;34.60
20733;BMP180;10527;52.124;5.196;2023-06-19T11:39:47;101220.00;;;34.60
20733;BMP180;10527;52.124;5.196;2023-06-19T11:42:19;101225.00;;;34.70
20733;BMP180;10527;52.124;5.196;2023-06-19T11:45:12;101227.00;;;34.80
20733;BMP180;10527;52.124;5.196;2023-06-19T11:47:39;101234.00;;;34.90
20733;BMP180;10527;52.124;5.196;2023-06-19T11:50:07;101225.00;;;35.00
20733;BMP180;10527;52.124;5.196;2023-06-19T11:52:35;101232.00;;;35.00
20733;BMP180;10527;52.124;5.196;2023-06-19T11:55:02;101225.00;;;35.10
20733;BMP180;10527;52.124;5.196;2023-06-19T11:57:29;101220.00;;;35.10
20733;BMP180;10527;52.124;5.196;2023-06-19T11:59:56;101229.00;;;35.20
20733;BMP180;10527;52.124;5.196;2023-06-19T12:02:23;101230.00;;;35.20
20733;BMP180;10527;52.124;5.196;2023-06-19T12:04:51;101226.00;;;35.20
20733;BMP180;10527;52.124;5.196;2023-06-19T12:07:19;101236.00;;;35.20
20733;BMP180;10527;52.124;5.196;2023-06-19T12:09:46;101231.00;;;35.30
20733;BMP180;10527;52.124;5.196;2023-06-19T12:12:13;101232.00;;;35.40
20733;BMP180;10527;52.124;5.196;2023-06-19T12:14:40;101235.00;;;35.40
20733;BMP180;10527;52.124;5.196;2023-06-19T12:17:07;101238.00;;;35.50
20733;BMP180;10527;52.124;5.196;2023-06-19T12:19:34;101237.00;;;35.60
20733;BMP180;10527;52.124;5.196;2023-06-19T12:22:01;101252.00;;;35.70
20733;BMP180;10527;52.124;5.196;2023-06-19T12:24:28;101237.00;;;35.70
20733;BMP180;10527;52.124;5.196;2023-06-19T12:26:55;101226.00;;;35.70
20733;BMP180;10527;52.124;5.196;2023-06-19T12:29:21;101229.00;;;35.70
20733;BMP180;10527;52.124;5.196;2023-06-19T12:31:48;101235.00;;;35.70
20733;BMP180;10527;52.124;5.196;2023-06-19T12:34:15;101240.00;;;35.80
20733;BMP180;10527;52.124;5.196;2023-06-19T12:36:57;101235.00;;;35.70
20733;BMP180;10527;52.124;5.196;2023-06-19T12:39:24;101231.00;;;35.80
20733;BMP180;10527;52.124;5.196;2023-06-19T12:41:54;101238.00;;;35.80
20733;BMP180;10527;52.124;5.196;2023-06-19T12:44:22;101245.00;;;35.80
20733;BMP180;10527;52.124;5.196;2023-06-19T12:46:49;101245.00;;;35.80
20733;BMP180;10527;52.124;5.196;2023-06-19T12:49:16;101250.00;;;35.80
20733;BMP180;10527;52.124;5.196;2023-06-19T12:51:43;101244.00;;;35.80
20733;BMP180;10527;52.124;5.196;2023-06-19T12:54:10;101243.00;;;35.80
20733;BMP180;10527;52.124;5.196;2023-06-19T12:56:37;101244.00;;;35.80
20733;BMP180;10527;52.124;5.196;2023-06-19T12:59:04;101246.00;;;35.80
20733;BMP180;10527;52.124;5.196;2023-06-19T13:01:31;101246.00;;;35.80
20733;BMP180;10527;52.124;5.196;2023-06-19T13:03:58;101250.00;;;35.80
20733;BMP180;10527;52.124;5.196;2023-06-19T13:06:26;101246.00;;;35.80
20733;BMP180;10527;52.124;5.196;2023-06-19T13:08:53;101242.00;;;35.90
20733;BMP180;10527;52.124;5.196;2023-06-19T13:11:21;101241.00;;;36.00
20733;BMP180;10527;52.124;5.196;2023-06-19T13:13:47;101249.00;;;36.00
20733;BMP180;10527;52.124;5.196;2023-06-19T13:16:14;101249.00;;;36.10
20733;BMP180;10527;52.124;5.196;2023-06-19T13:18:42;101233.00;;;36.20
20733;BMP180;10527;52.124;5.196;2023-06-19T13:21:18;101245.00;;;36.30
20733;BMP180;10527;52.124;5.196;2023-06-19T13:23:45;101240.00;;;36.40
20733;BMP180;10527;52.124;5.196;2023-06-19T13:26:12;101249.00;;;36.40
20733;BMP180;10527;52.124;5.196;2023-06-19T13:28:39;101246.00;;;36.40
20733;BMP180;10527;52.124;5.196;2023-06-19T13:31:06;101235.00;;;36.50
20733;BMP180;10527;52.124;5.196;2023-06-19T13:33:33;101235.00;;;36.50
20733;BMP180;10527;52.124;5.196;2023-06-19T13:35:59;101230.00;;;36.50
20733;BMP180;10527;52.124;5.196;2023-06-19T13:38:26;101231.00;;;36.50
20733;BMP180;10527;52.124;5.196;2023-06-19T13:40:53;101234.00;;;36.50
20733;BMP180;10527;52.124;5.196;2023-06-19T13:43:20;101224.00;;;36.50
20733;BMP180;10527;52.124;5.196;2023-06-19T13:45:50;101221.00;;;36.50
20733;BMP180;10527;52.124;5.196;2023-06-19T13:48:17;101223.00;;;36.50
20733;BMP180;10527;52.124;5.196;2023-06-19T13:50:44;101216.00;;;36.50
20733;BMP180;10527;52.124;5.196;2023-06-19T13:53:10;101226.00;;;36.60
20733;BMP180;10527;52.124;5.196;2023-06-19T13:55:37;101218.00;;;36.60
20733;BMP180;10527;52.124;5.196;2023-06-19T13:58:04;101214.00;;;36.70
20733;BMP180;10527;52.124;5.196;2023-06-19T14:00:31;101219.00;;;36.80
20733;BMP180;10527;52.124;5.196;2023-06-19T14:02:58;101221.00;;;36.80
20733;BMP180;10527;52.124;5.196;2023-06-19T14:05:25;101219.00;;;36.80
20733;BMP180;10527;52.124;5.196;2023-06-19T14:07:55;101214.00;;;36.80